PWSweather.com
Personal Weather Stations
Station Observations
KAZSIERR7
Canyon De Flores, Sierra Vista, AZ 85650

Canyon De FloresSierra Vista, AZ 85650

Lat: 31.5, Lon: -110.26

Elevation: 4645

Station Type: LaCrosse WS-3610 & Boltek Lightning Detector

http://www.lightningring.com/weather/

High Low Average
Temperature 67.3°F19.6°F 37.9°F3.3°F 51.9°F11.1°F
Dew Point 28.0°F-2.2°F 9.3°F-12.6°F 19.0°F-7.2°F
Winds 5.2 mph SSE8.4 mph SSE Calm Calm 0.7 mph 1.1 mph
Wind Gusts 18.5 mph29.8 mph -- 1.7 mph2.7 mph
Humidity 46% 13% 30%
Pressure 30.22 in1023.40 in 30.12 in1020.00 in -
Precipitation 0.00 in0.00 in - -
Hour Temp Dew Point Humidity Winds Wind Gusts Pressure Precip Precip Rate Daily Precip Total
12:00 AM 42.1°F5.6°C 16.2°F-8.8°C 35% Calm Calm -- 30.19 in1022.4 mb 0.00 in0.0 mm 0.00 in/hr0.0 mm/hr 0.00 in0.0 mm
12:06 AM 42.1°F5.6°C 16.2°F-8.8°C 35% Calm Calm -- 30.19 in1022.4 mb 0.00 in0.0 mm 0.00 in/hr0.0 mm/hr 0.00 in0.0 mm
12:11 AM 42.1°F5.6°C 16.2°F-8.8°C 36% Calm Calm -- 30.19 in1022.4 mb 0.00 in0.0 mm 0.00 in/hr0.0 mm/hr 0.00 in0.0 mm
12:17 AM 41.9°F5.5°C 16.5°F-8.6°C 36% Calm Calm -- 30.19 in1022.4 mb 0.00 in0.0 mm 0.00 in/hr0.0 mm/hr 0.00 in0.0 mm
12:22 AM 41.7°F5.4°C 16.5°F-8.6°C 36% Calm Calm -- 30.19 in1022.4 mb 0.00 in0.0 mm 0.00 in/hr0.0 mm/hr 0.00 in0.0 mm
12:27 AM 41.4°F5.2°C 16.7°F-8.5°C 37% Calm Calm -- 30.19 in1022.4 mb 0.00 in0.0 mm 0.00 in/hr0.0 mm/hr 0.00 in0.0 mm
12:32 AM 41.4°F5.2°C 16.7°F-8.5°C 37% Calm Calm -- 30.19 in1022.4 mb 0.00 in0.0 mm 0.00 in/hr0.0 mm/hr 0.00 in0.0 mm
12:38 AM 41.2°F5.1°C 16.7°F-8.5°C 37% Calm Calm -- 30.19 in1022.4 mb 0.00 in0.0 mm 0.00 in/hr0.0 mm/hr 0.00 in0.0 mm
12:43 AM 41.2°F5.1°C 16.7°F-8.5°C 37% Calm Calm -- 30.18 in1022.0 mb 0.00 in0.0 mm 0.00 in/hr0.0 mm/hr 0.00 in0.0 mm
12:48 AM 41.2°F5.1°C 16.7°F-8.5°C 37% Calm Calm -- 30.18 in1022.0 mb 0.00 in0.0 mm 0.00 in/hr0.0 mm/hr 0.00 in0.0 mm
12:53 AM 41.0°F5.0°C 17.1°F-8.3°C 38% Calm Calm -- 30.18 in1022.0 mb 0.00 in0.0 mm 0.00 in/hr0.0 mm/hr 0.00 in0.0 mm
12:59 AM 41.2°F5.1°C 17.2°F-8.2°C 38% Calm Calm -- 30.18 in1022.0 mb 0.00 in0.0 mm 0.00 in/hr0.0 mm/hr 0.00 in0.0 mm
01:04 AM 41.0°F5.0°C 17.8°F-7.9°C 39% Calm Calm -- 30.18 in1022.0 mb 0.00 in0.0 mm 0.00 in/hr0.0 mm/hr 0.00 in0.0 mm
01:09 AM 40.8°F4.9°C 18.3°F-7.6°C 40% Calm Calm -- 30.18 in1022.0 mb 0.00 in0.0 mm 0.00 in/hr0.0 mm/hr 0.00 in0.0 mm
01:15 AM 40.6°F4.8°C 18.7°F-7.4°C 41% Calm Calm -- 30.18 in1022.0 mb 0.00 in0.0 mm 0.00 in/hr0.0 mm/hr 0.00 in0.0 mm
01:20 AM 40.6°F4.8°C 18.7°F-7.4°C 40% Calm Calm -- 30.18 in1022.0 mb 0.00 in0.0 mm 0.00 in/hr0.0 mm/hr 0.00 in0.0 mm
01:25 AM 40.6°F4.8°C 18.7°F-7.4°C 39% Calm Calm -- 30.17 in1021.7 mb 0.00 in0.0 mm 0.00 in/hr0.0 mm/hr 0.00 in0.0 mm
01:31 AM 40.6°F4.8°C 18.7°F-7.4°C 40% Calm Calm -- 30.17 in1021.7 mb 0.00 in0.0 mm 0.00 in/hr0.0 mm/hr 0.00 in0.0 mm
01:36 AM 40.6°F4.8°C 18.7°F-7.4°C 39% Calm Calm -- 30.17 in1021.7 mb 0.00 in0.0 mm 0.00 in/hr0.0 mm/hr 0.00 in0.0 mm
01:41 AM 41.2°F5.1°C 17.2°F-8.2°C 38% Calm Calm -- 30.18 in1022.0 mb 0.00 in0.0 mm 0.00 in/hr0.0 mm/hr 0.00 in0.0 mm
01:46 AM 41.4°F5.2°C 16.7°F-8.5°C 38% Calm Calm -- 30.18 in1022.0 mb 0.00 in0.0 mm 0.00 in/hr0.0 mm/hr 0.00 in0.0 mm
01:52 AM 41.5°F5.3°C 16.9°F-8.4°C 37% Calm Calm -- 30.18 in1022.0 mb 0.00 in0.0 mm 0.00 in/hr0.0 mm/hr 0.00 in0.0 mm
01:57 AM 41.5°F5.3°C 16.9°F-8.4°C 37% Calm Calm -- 30.18 in1022.0 mb 0.00 in0.0 mm 0.00 in/hr0.0 mm/hr 0.00 in0.0 mm
02:02 AM 41.4°F5.2°C 16.7°F-8.5°C 37% Calm Calm -- 30.17 in1021.7 mb 0.00 in0.0 mm 0.00 in/hr0.0 mm/hr 0.00 in0.0 mm
02:07 AM 40.8°F4.9°C 16.9°F-8.4°C 38% Calm Calm -- 30.17 in1021.7 mb 0.00 in0.0 mm 0.00 in/hr0.0 mm/hr 0.00 in0.0 mm
02:12 AM 40.8°F4.9°C 16.9°F-8.4°C 37% Calm Calm -- 30.17 in1021.7 mb 0.00 in0.0 mm 0.00 in/hr0.0 mm/hr 0.00 in0.0 mm
02:18 AM 41.0°F5.0°C 16.5°F-8.6°C 37% Calm Calm -- 30.17 in1021.7 mb 0.00 in0.0 mm 0.00 in/hr0.0 mm/hr 0.00 in0.0 mm
02:23 AM 41.4°F5.2°C 16.7°F-8.5°C 37% Calm Calm -- 30.17 in1021.7 mb 0.00 in0.0 mm 0.00 in/hr0.0 mm/hr 0.00 in0.0 mm
02:28 AM 41.5°F5.3°C 16.3°F-8.7°C 37% Calm Calm -- 30.17 in1021.7 mb 0.00 in0.0 mm 0.00 in/hr0.0 mm/hr 0.00 in0.0 mm
02:33 AM 41.4°F5.2°C 16.7°F-8.5°C 37% Calm Calm -- 30.17 in1021.7 mb 0.00 in0.0 mm 0.00 in/hr0.0 mm/hr 0.00 in0.0 mm
02:39 AM 41.2°F5.1°C 16.7°F-8.5°C 37% Calm Calm -- 30.17 in1021.7 mb 0.00 in0.0 mm 0.00 in/hr0.0 mm/hr 0.00 in0.0 mm
02:44 AM 41.2°F5.1°C 16.7°F-8.5°C 37% Calm Calm -- 30.16 in1021.3 mb 0.00 in0.0 mm 0.00 in/hr0.0 mm/hr 0.00 in0.0 mm
02:49 AM 41.4°F5.2°C 16.7°F-8.5°C 37% Calm Calm -- 30.17 in1021.7 mb 0.00 in0.0 mm 0.00 in/hr0.0 mm/hr 0.00 in0.0 mm
02:54 AM 41.4°F5.2°C 16.2°F-8.8°C 36% Calm Calm -- 30.17 in1021.7 mb 0.00 in0.0 mm 0.00 in/hr0.0 mm/hr 0.00 in0.0 mm
03:00 AM 41.5°F5.3°C 16.3°F-8.7°C 36% Calm Calm -- 30.16 in1021.3 mb 0.00 in0.0 mm 0.00 in/hr0.0 mm/hr 0.00 in0.0 mm
03:05 AM 41.7°F5.4°C 16.5°F-8.6°C 36% Calm Calm -- 30.17 in1021.7 mb 0.00 in0.0 mm 0.00 in/hr0.0 mm/hr 0.00 in0.0 mm
03:10 AM 41.5°F5.3°C 16.3°F-8.7°C 35% Calm Calm -- 30.16 in1021.3 mb 0.00 in0.0 mm 0.00 in/hr0.0 mm/hr 0.00 in0.0 mm
03:15 AM 41.7°F5.4°C 15.8°F-9.0°C 35% Calm Calm -- 30.16 in1021.3 mb 0.00 in0.0 mm 0.00 in/hr0.0 mm/hr 0.00 in0.0 mm
03:21 AM 41.2°F5.1°C 16.0°F-8.9°C 36% Calm Calm -- 30.16 in1021.3 mb 0.00 in0.0 mm 0.00 in/hr0.0 mm/hr 0.00 in0.0 mm
03:26 AM 41.2°F5.1°C 16.0°F-8.9°C 36% Calm Calm -- 30.16 in1021.3 mb 0.00 in0.0 mm 0.00 in/hr0.0 mm/hr 0.00 in0.0 mm
03:31 AM 41.2°F5.1°C 16.0°F-8.9°C 36% Calm Calm -- 30.16 in1021.3 mb 0.00 in0.0 mm 0.00 in/hr0.0 mm/hr 0.00 in0.0 mm
03:36 AM 41.9°F5.5°C 16.0°F-8.9°C 35% Calm Calm -- 30.16 in1021.3 mb 0.00 in0.0 mm 0.00 in/hr0.0 mm/hr 0.00 in0.0 mm
03:42 AM 42.3°F5.7°C 15.6°F-9.1°C 34% Calm Calm -- 30.15 in1021.0 mb 0.00 in0.0 mm 0.00 in/hr0.0 mm/hr 0.00 in0.0 mm
03:47 AM 42.4°F5.8°C 15.1°F-9.4°C 33% Calm Calm -- 30.16 in1021.3 mb 0.00 in0.0 mm 0.00 in/hr0.0 mm/hr 0.00 in0.0 mm
03:52 AM 42.1°F5.6°C 15.4°F-9.2°C 34% Calm Calm -- 30.15 in1021.0 mb 0.00 in0.0 mm 0.00 in/hr0.0 mm/hr 0.00 in0.0 mm
03:57 AM 41.7°F5.4°C 15.1°F-9.4°C 34% Calm Calm -- 30.16 in1021.3 mb 0.00 in0.0 mm 0.00 in/hr0.0 mm/hr 0.00 in0.0 mm
04:03 AM 41.5°F5.3°C 15.6°F-9.1°C 35% Calm Calm -- 30.15 in1021.0 mb 0.00 in0.0 mm 0.00 in/hr0.0 mm/hr 0.00 in0.0 mm
04:08 AM 41.2°F5.1°C 16.0°F-8.9°C 36% Calm Calm -- 30.15 in1021.0 mb 0.00 in0.0 mm 0.00 in/hr0.0 mm/hr 0.00 in0.0 mm
04:13 AM 40.5°F4.7°C 16.0°F-8.9°C 37% Calm Calm -- 30.15 in1021.0 mb 0.00 in0.0 mm 0.00 in/hr0.0 mm/hr 0.00 in0.0 mm
04:18 AM 40.3°F4.6°C 15.8°F-9.0°C 37% Calm Calm -- 30.15 in1021.0 mb 0.00 in0.0 mm 0.00 in/hr0.0 mm/hr 0.00 in0.0 mm
04:24 AM 39.9°F4.4°C 16.2°F-8.8°C 38% Calm Calm -- 30.15 in1021.0 mb 0.00 in0.0 mm 0.00 in/hr0.0 mm/hr 0.00 in0.0 mm
04:29 AM 39.7°F4.3°C 16.0°F-8.9°C 39% Calm Calm -- 30.15 in1021.0 mb 0.00 in0.0 mm 0.00 in/hr0.0 mm/hr 0.00 in0.0 mm
04:34 AM 39.6°F4.2°C 16.5°F-8.6°C 39% Calm Calm -- 30.15 in1021.0 mb 0.00 in0.0 mm 0.00 in/hr0.0 mm/hr 0.00 in0.0 mm
04:40 AM 39.2°F4.0°C 16.9°F-8.4°C 40% Calm Calm -- 30.16 in1021.3 mb 0.00 in0.0 mm 0.00 in/hr0.0 mm/hr 0.00 in0.0 mm
04:45 AM 39.0°F3.9°C 16.7°F-8.5°C 40% Calm Calm -- 30.15 in1021.0 mb 0.00 in0.0 mm 0.00 in/hr0.0 mm/hr 0.00 in0.0 mm
04:50 AM 39.0°F3.9°C 16.7°F-8.5°C 40% Calm Calm -- 30.16 in1021.3 mb 0.00 in0.0 mm 0.00 in/hr0.0 mm/hr 0.00 in0.0 mm
04:55 AM 38.8°F3.8°C 16.5°F-8.6°C 40% Calm Calm -- 30.16 in1021.3 mb 0.00 in0.0 mm 0.00 in/hr0.0 mm/hr 0.00 in0.0 mm
05:01 AM 38.8°F3.8°C 16.5°F-8.6°C 40% Calm Calm -- 30.16 in1021.3 mb 0.00 in0.0 mm 0.00 in/hr0.0 mm/hr 0.00 in0.0 mm
05:06 AM 39.0°F3.9°C 17.2°F-8.2°C 41% Calm Calm -- 30.15 in1021.0 mb 0.00 in0.0 mm 0.00 in/hr0.0 mm/hr 0.00 in0.0 mm
05:11 AM 39.6°F4.2°C 17.1°F-8.3°C 40% Calm Calm -- 30.16 in1021.3 mb 0.00 in0.0 mm 0.00 in/hr0.0 mm/hr 0.00 in0.0 mm
05:16 AM 39.4°F4.1°C 16.9°F-8.4°C 40% Calm Calm -- 30.15 in1021.0 mb 0.00 in0.0 mm 0.00 in/hr0.0 mm/hr 0.00 in0.0 mm
05:22 AM 39.4°F4.1°C 16.9°F-8.4°C 40% Calm Calm -- 30.15 in1021.0 mb 0.00 in0.0 mm 0.00 in/hr0.0 mm/hr 0.00 in0.0 mm
05:27 AM 39.0°F3.9°C 16.7°F-8.5°C 40% Calm Calm -- 30.15 in1021.0 mb 0.00 in0.0 mm 0.00 in/hr0.0 mm/hr 0.00 in0.0 mm
05:32 AM 39.0°F3.9°C 16.7°F-8.5°C 41% Calm Calm -- 30.15 in1021.0 mb 0.00 in0.0 mm 0.00 in/hr0.0 mm/hr 0.00 in0.0 mm
05:38 AM 39.2°F4.0°C 17.2°F-8.2°C 41% Calm Calm -- 30.15 in1021.0 mb 0.00 in0.0 mm 0.00 in/hr0.0 mm/hr 0.00 in0.0 mm
05:43 AM 38.8°F3.8°C 17.6°F-8.0°C 42% Calm Calm -- 30.15 in1021.0 mb 0.00 in0.0 mm 0.00 in/hr0.0 mm/hr 0.00 in0.0 mm
05:48 AM 38.3°F3.5°C 17.6°F-8.0°C 43% Calm Calm -- 30.16 in1021.3 mb 0.00 in0.0 mm 0.00 in/hr0.0 mm/hr 0.00 in0.0 mm
05:53 AM 38.1°F3.4°C 17.4°F-8.1°C 43% Calm Calm -- 30.15 in1021.0 mb 0.00 in0.0 mm 0.00 in/hr0.0 mm/hr 0.00 in0.0 mm
05:59 AM 38.1°F3.4°C 17.4°F-8.1°C 43% Calm Calm -- 30.16 in1021.3 mb 0.00 in0.0 mm 0.00 in/hr0.0 mm/hr 0.00 in0.0 mm
06:04 AM 38.1°F3.4°C 17.4°F-8.1°C 44% Calm Calm -- 30.16 in1021.3 mb 0.00 in0.0 mm 0.00 in/hr0.0 mm/hr 0.00 in0.0 mm
06:09 AM 37.9°F3.3°C 17.2°F-8.2°C 43% Calm Calm -- 30.16 in1021.3 mb 0.00 in0.0 mm 0.00 in/hr0.0 mm/hr 0.00 in0.0 mm
06:14 AM 38.1°F3.4°C 18.0°F-7.8°C 44% Calm Calm -- 30.16 in1021.3 mb 0.00 in0.0 mm 0.00 in/hr0.0 mm/hr 0.00 in0.0 mm
06:20 AM 38.1°F3.4°C 18.0°F-7.8°C 44% Calm Calm -- 30.16 in1021.3 mb 0.00 in0.0 mm 0.00 in/hr0.0 mm/hr 0.00 in0.0 mm
06:25 AM 38.8°F3.8°C 17.6°F-8.0°C 42% Calm Calm -- 30.16 in1021.3 mb 0.00 in0.0 mm 0.00 in/hr0.0 mm/hr 0.00 in0.0 mm
06:30 AM 38.7°F3.7°C 17.4°F-8.1°C 42% Calm Calm -- 30.15 in1021.0 mb 0.00 in0.0 mm 0.00 in/hr0.0 mm/hr 0.00 in0.0 mm
06:35 AM 38.8°F3.8°C 17.6°F-8.0°C 43% Calm Calm -- 30.16 in1021.3 mb 0.00 in0.0 mm 0.00 in/hr0.0 mm/hr 0.00 in0.0 mm
06:41 AM 38.7°F3.7°C 18.0°F-7.8°C 43% Calm Calm -- 30.16 in1021.3 mb 0.00 in0.0 mm 0.00 in/hr0.0 mm/hr 0.00 in0.0 mm
06:46 AM 38.1°F3.4°C 17.4°F-8.1°C 43% Calm Calm -- 30.16 in1021.3 mb 0.00 in0.0 mm 0.00 in/hr0.0 mm/hr 0.00 in0.0 mm
06:52 AM 38.1°F3.4°C 17.4°F-8.1°C 43% Calm Calm -- 30.16 in1021.3 mb 0.00 in0.0 mm 0.00 in/hr0.0 mm/hr 0.00 in0.0 mm
06:57 AM 38.1°F3.4°C 17.4°F-8.1°C 43% Calm Calm -- 30.16 in1021.3 mb 0.00 in0.0 mm 0.00 in/hr0.0 mm/hr 0.00 in0.0 mm
07:02 AM 37.9°F3.3°C 17.8°F-7.9°C 44% Calm Calm -- 30.16 in1021.3 mb 0.00 in0.0 mm 0.00 in/hr0.0 mm/hr 0.00 in0.0 mm
07:07 AM 37.9°F3.3°C 17.8°F-7.9°C 44% Calm Calm -- 30.17 in1021.7 mb 0.00 in0.0 mm 0.00 in/hr0.0 mm/hr 0.00 in0.0 mm
07:13 AM 38.1°F3.4°C 18.0°F-7.8°C 44% Calm Calm -- 30.17 in1021.7 mb 0.00 in0.0 mm 0.00 in/hr0.0 mm/hr 0.00 in0.0 mm
07:18 AM 38.1°F3.4°C 18.0°F-7.8°C 43% Calm Calm -- 30.17 in1021.7 mb 0.00 in0.0 mm 0.00 in/hr0.0 mm/hr 0.00 in0.0 mm
07:23 AM 37.9°F3.3°C 17.8°F-7.9°C 43% Calm Calm -- 30.16 in1021.3 mb 0.00 in0.0 mm 0.00 in/hr0.0 mm/hr 0.00 in0.0 mm
07:29 AM 38.8°F3.8°C 17.6°F-8.0°C 42% Calm Calm -- 30.16 in1021.3 mb 0.00 in0.0 mm 0.00 in/hr0.0 mm/hr 0.00 in0.0 mm
07:35 AM 39.4°F4.1°C 18.0°F-7.8°C 41% Calm Calm -- 30.16 in1021.3 mb 0.00 in0.0 mm 0.00 in/hr0.0 mm/hr 0.00 in0.0 mm
07:40 AM 39.2°F4.0°C 17.8°F-7.9°C 42% Calm Calm -- 30.16 in1021.3 mb 0.00 in0.0 mm 0.00 in/hr0.0 mm/hr 0.00 in0.0 mm
07:45 AM 39.2°F4.0°C 17.8°F-7.9°C 42% Calm Calm -- 30.16 in1021.3 mb 0.00 in0.0 mm 0.00 in/hr0.0 mm/hr 0.00 in0.0 mm
07:50 AM 39.7°F4.3°C 18.3°F-7.6°C 42% Calm Calm -- 30.15 in1021.0 mb 0.00 in0.0 mm 0.00 in/hr0.0 mm/hr 0.00 in0.0 mm
07:56 AM 39.9°F4.4°C 18.5°F-7.5°C 42% Calm Calm -- 30.16 in1021.3 mb 0.00 in0.0 mm 0.00 in/hr0.0 mm/hr 0.00 in0.0 mm
08:01 AM 40.6°F4.8°C 19.2°F-7.1°C 42% Calm Calm -- 30.16 in1021.3 mb 0.00 in0.0 mm 0.00 in/hr0.0 mm/hr 0.00 in0.0 mm
08:06 AM 41.2°F5.1°C 19.0°F-7.2°C 41% Calm Calm -- 30.17 in1021.7 mb 0.00 in0.0 mm 0.00 in/hr0.0 mm/hr 0.00 in0.0 mm
08:11 AM 41.9°F5.5°C 19.8°F-6.8°C 41% Calm Calm -- 30.17 in1021.7 mb 0.00 in0.0 mm 0.00 in/hr0.0 mm/hr 0.00 in0.0 mm
08:17 AM 43.0°F6.1°C 20.1°F-6.6°C 40% Calm Calm -- 30.17 in1021.7 mb 0.00 in0.0 mm 0.00 in/hr0.0 mm/hr 0.00 in0.0 mm
08:22 AM 43.7°F6.5°C 20.8°F-6.2°C 40% Calm Calm -- 30.17 in1021.7 mb 0.00 in0.0 mm 0.00 in/hr0.0 mm/hr 0.00 in0.0 mm
08:28 AM 45.1°F7.3°C 20.1°F-6.6°C 37% Calm Calm -- 30.17 in1021.7 mb 0.00 in0.0 mm 0.00 in/hr0.0 mm/hr 0.00 in0.0 mm
08:33 AM 46.6°F8.1°C 20.8°F-6.2°C 36% Calm Calm -- 30.17 in1021.7 mb 0.00 in0.0 mm 0.00 in/hr0.0 mm/hr 0.00 in0.0 mm
08:38 AM 47.5°F8.6°C 20.3°F-6.5°C 34% Calm Calm -- 30.17 in1021.7 mb 0.00 in0.0 mm 0.00 in/hr0.0 mm/hr 0.00 in0.0 mm
08:43 AM 48.4°F9.1°C 19.0°F-7.2°C 31% Calm Calm -- 30.18 in1022.0 mb 0.00 in0.0 mm 0.00 in/hr0.0 mm/hr 0.00 in0.0 mm
08:48 AM 50.9°F10.5°C 18.7°F-7.4°C 28% 0.4 mph ENE0.6 kmh ENE 0.4 mph0.6 kmh 30.18 in1022.0 mb 0.00 in0.0 mm 0.00 in/hr0.0 mm/hr 0.00 in0.0 mm
08:54 AM 50.9°F10.5°C 18.7°F-7.4°C 28% 1.1 mph NE1.8 kmh NE 1.1 mph1.8 kmh 30.17 in1021.7 mb 0.00 in0.0 mm 0.00 in/hr0.0 mm/hr 0.00 in0.0 mm
08:59 AM 53.2°F11.8°C 16.0°F-8.9°C 23% Calm Calm 1.1 mph1.8 kmh 30.18 in1022.0 mb 0.00 in0.0 mm 0.00 in/hr0.0 mm/hr 0.00 in0.0 mm
09:04 AM 54.1°F12.3°C 15.8°F-9.0°C 22% 0.6 mph NE1.0 kmh NE 0.6 mph1.0 kmh 30.17 in1021.7 mb 0.00 in0.0 mm 0.00 in/hr0.0 mm/hr 0.00 in0.0 mm
09:09 AM 56.1°F13.4°C 15.6°F-9.1°C 20% 1.3 mph NE2.1 kmh NE 1.3 mph2.1 kmh 30.17 in1021.7 mb 0.00 in0.0 mm 0.00 in/hr0.0 mm/hr 0.00 in0.0 mm
09:15 AM 56.7°F13.7°C 14.5°F-9.7°C 19% Calm Calm 1.3 mph2.1 kmh 30.17 in1021.7 mb 0.00 in0.0 mm 0.00 in/hr0.0 mm/hr 0.00 in0.0 mm
09:20 AM 57.6°F14.2°C 15.3°F-9.3°C 19% Calm Calm -- 30.17 in1021.7 mb 0.00 in0.0 mm 0.00 in/hr0.0 mm/hr 0.00 in0.0 mm
09:25 AM 59.5°F15.3°C 13.6°F-10.2°C 17% Calm Calm -- 30.17 in1021.7 mb 0.00 in0.0 mm 0.00 in/hr0.0 mm/hr 0.00 in0.0 mm
09:30 AM 59.2°F15.1°C 14.9°F-9.5°C 18% Calm Calm -- 30.17 in1021.7 mb 0.00 in0.0 mm 0.00 in/hr0.0 mm/hr 0.00 in0.0 mm
09:36 AM 59.2°F15.1°C 13.5°F-10.3°C 17% Calm Calm -- 30.17 in1021.7 mb 0.00 in0.0 mm 0.00 in/hr0.0 mm/hr 0.00 in0.0 mm
09:41 AM 60.1°F15.6°C 14.2°F-9.9°C 17% 0.8 mph ENE1.3 kmh ENE 0.8 mph1.3 kmh 30.17 in1021.7 mb 0.00 in0.0 mm 0.00 in/hr0.0 mm/hr 0.00 in0.0 mm
09:46 AM 59.2°F15.1°C 13.5°F-10.3°C 17% 2.0 mph ENE3.2 kmh ENE 2.0 mph3.2 kmh 30.17 in1021.7 mb 0.00 in0.0 mm 0.00 in/hr0.0 mm/hr 0.00 in0.0 mm
09:51 AM 58.5°F14.7°C 14.4°F-9.8°C 18% 1.9 mph NE3.1 kmh NE 2.6 mph4.2 kmh 30.18 in1022.0 mb 0.00 in0.0 mm 0.00 in/hr0.0 mm/hr 0.00 in0.0 mm
09:57 AM 59.2°F15.1°C 14.9°F-9.5°C 18% 0.8 mph NNE1.3 kmh NNE 2.6 mph4.2 kmh 30.18 in1022.0 mb 0.00 in0.0 mm 0.00 in/hr0.0 mm/hr 0.00 in0.0 mm
10:02 AM 58.8°F14.9°C 13.1°F-10.5°C 17% 3.1 mph NE5.0 kmh NE 3.1 mph5.0 kmh 30.18 in1022.0 mb 0.00 in0.0 mm 0.00 in/hr0.0 mm/hr 0.00 in0.0 mm
10:07 AM 56.5°F13.6°C 12.7°F-10.7°C 18% 4.9 mph NE7.9 kmh NE 4.9 mph7.9 kmh 30.19 in1022.4 mb 0.00 in0.0 mm 0.00 in/hr0.0 mm/hr 0.00 in0.0 mm
10:12 AM 55.0°F12.8°C 13.1°F-10.5°C 19% 2.6 mph ENE4.2 kmh ENE 4.9 mph7.9 kmh 30.19 in1022.4 mb 0.00 in0.0 mm 0.00 in/hr0.0 mm/hr 0.00 in0.0 mm
10:18 AM 54.5°F12.5°C 14.2°F-9.9°C 20% 3.5 mph ENE5.6 kmh ENE 3.5 mph5.6 kmh 30.19 in1022.4 mb 0.00 in0.0 mm 0.00 in/hr0.0 mm/hr 0.00 in0.0 mm
10:23 AM 54.7°F12.6°C 15.3°F-9.3°C 21% 0.6 mph NE1.0 kmh NE 3.5 mph5.6 kmh 30.19 in1022.4 mb 0.00 in0.0 mm 0.00 in/hr0.0 mm/hr 0.00 in0.0 mm
10:28 AM 55.0°F12.8°C 15.6°F-9.1°C 21% 0.6 mph NE1.0 kmh NE 2.9 mph4.7 kmh 30.20 in1022.7 mb 0.00 in0.0 mm 0.00 in/hr0.0 mm/hr 0.00 in0.0 mm
10:33 AM 56.7°F13.7°C 14.5°F-9.7°C 19% Calm Calm 3.5 mph5.6 kmh 30.20 in1022.7 mb 0.00 in0.0 mm 0.00 in/hr0.0 mm/hr 0.00 in0.0 mm
10:39 AM 57.9°F14.4°C 14.0°F-10.0°C 18% Calm Calm 3.5 mph5.6 kmh 30.20 in1022.7 mb 0.00 in0.0 mm 0.00 in/hr0.0 mm/hr 0.00 in0.0 mm
10:44 AM 58.3°F14.6°C 14.2°F-9.9°C 18% Calm Calm -- 30.20 in1022.7 mb 0.00 in0.0 mm 0.00 in/hr0.0 mm/hr 0.00 in0.0 mm
10:49 AM 59.7°F15.4°C 12.4°F-10.9°C 16% Calm Calm -- 30.20 in1022.7 mb 0.00 in0.0 mm 0.00 in/hr0.0 mm/hr 0.00 in0.0 mm
10:54 AM 61.7°F16.5°C 14.0°F-10.0°C 16% Calm Calm -- 30.20 in1022.7 mb 0.00 in0.0 mm 0.00 in/hr0.0 mm/hr 0.00 in0.0 mm
11:00 AM 59.4°F15.2°C 10.4°F-12.0°C 15% 3.5 mph NE5.6 kmh NE 3.5 mph5.6 kmh 30.20 in1022.7 mb 0.00 in0.0 mm 0.00 in/hr0.0 mm/hr 0.00 in0.0 mm
11:05 AM 60.1°F15.6°C 12.6°F-10.8°C 16% 1.3 mph E2.1 kmh E 3.5 mph5.6 kmh 30.20 in1022.7 mb 0.00 in0.0 mm 0.00 in/hr0.0 mm/hr 0.00 in0.0 mm
11:10 AM 60.6°F15.9°C 13.1°F-10.5°C 16% Calm Calm 1.5 mph2.4 kmh 30.20 in1022.7 mb 0.00 in0.0 mm 0.00 in/hr0.0 mm/hr 0.00 in0.0 mm
11:16 AM 62.4°F16.9°C 11.5°F-11.4°C 14% 0.8 mph NE1.3 kmh NE 1.5 mph2.4 kmh 30.20 in1022.7 mb 0.00 in0.0 mm 0.00 in/hr0.0 mm/hr 0.00 in0.0 mm
11:21 AM 61.7°F16.5°C 10.8°F-11.8°C 14% 2.0 mph E3.2 kmh E 4.9 mph7.9 kmh 30.20 in1022.7 mb 0.00 in0.0 mm 0.00 in/hr0.0 mm/hr 0.00 in0.0 mm
11:26 AM 60.4°F15.8°C 12.9°F-10.6°C 16% 0.8 mph ESE1.3 kmh ESE 4.9 mph7.9 kmh 30.19 in1022.4 mb 0.00 in0.0 mm 0.00 in/hr0.0 mm/hr 0.00 in0.0 mm
11:31 AM 61.7°F16.5°C 14.0°F-10.0°C 16% Calm Calm 4.9 mph7.9 kmh 30.19 in1022.4 mb 0.00 in0.0 mm 0.00 in/hr0.0 mm/hr 0.00 in0.0 mm
11:37 AM 59.9°F15.5°C 9.3°F-12.6°C 14% 1.5 mph SE2.4 kmh SE 2.9 mph4.7 kmh 30.19 in1022.4 mb 0.00 in0.0 mm 0.00 in/hr0.0 mm/hr 0.00 in0.0 mm
11:42 AM 60.4°F15.8°C 12.9°F-10.6°C 16% Calm Calm 2.9 mph4.7 kmh 30.19 in1022.4 mb 0.00 in0.0 mm 0.00 in/hr0.0 mm/hr 0.00 in0.0 mm
11:47 AM 60.6°F15.9°C 13.1°F-10.5°C 16% 1.1 mph E1.8 kmh E 2.9 mph4.7 kmh 30.19 in1022.4 mb 0.00 in0.0 mm 0.00 in/hr0.0 mm/hr 0.00 in0.0 mm
11:52 AM 61.0°F16.1°C 13.5°F-10.3°C 16% 1.5 mph ESE2.4 kmh ESE 2.0 mph3.2 kmh 30.19 in1022.4 mb 0.00 in0.0 mm 0.00 in/hr0.0 mm/hr 0.00 in0.0 mm
11:58 AM 62.4°F16.9°C 14.5°F-9.7°C 16% Calm Calm 1.5 mph2.4 kmh 30.18 in1022.0 mb 0.00 in0.0 mm 0.00 in/hr0.0 mm/hr 0.00 in0.0 mm
12:03 PM 60.4°F15.8°C 9.9°F-12.3°C 14% 1.7 mph ESE2.7 kmh ESE 1.7 mph2.7 kmh 30.18 in1022.0 mb 0.00 in0.0 mm 0.00 in/hr0.0 mm/hr 0.00 in0.0 mm
12:08 PM 63.3°F17.4°C 10.6°F-11.9°C 13% 2.4 mph ESE3.9 kmh ESE 2.4 mph3.9 kmh 30.18 in1022.0 mb 0.00 in0.0 mm 0.00 in/hr0.0 mm/hr 0.00 in0.0 mm
12:13 PM 61.9°F16.6°C 9.3°F-12.6°C 13% 1.1 mph SSE1.8 kmh SSE 2.4 mph3.9 kmh 30.17 in1021.7 mb 0.00 in0.0 mm 0.00 in/hr0.0 mm/hr 0.00 in0.0 mm
12:19 PM 62.4°F16.9°C 11.5°F-11.4°C 14% 0.8 mph S1.3 kmh S 2.4 mph3.9 kmh 30.17 in1021.7 mb 0.00 in0.0 mm 0.00 in/hr0.0 mm/hr 0.00 in0.0 mm
12:24 PM 63.3°F17.4°C 10.6°F-11.9°C 13% 1.3 mph SSE2.1 kmh SSE 1.5 mph2.4 kmh 30.17 in1021.7 mb 0.00 in0.0 mm 0.00 in/hr0.0 mm/hr 0.00 in0.0 mm
12:29 PM 64.0°F17.8°C 10.9°F-11.7°C 13% Calm Calm 1.5 mph2.4 kmh 30.17 in1021.7 mb 0.00 in0.0 mm 0.00 in/hr0.0 mm/hr 0.00 in0.0 mm
12:34 PM 63.7°F17.6°C 12.4°F-10.9°C 14% 5.2 mph ESE8.4 kmh ESE 6.7 mph10.8 kmh 30.17 in1021.7 mb 0.00 in0.0 mm 0.00 in/hr0.0 mm/hr 0.00 in0.0 mm
12:40 PM 65.5°F18.6°C 12.2°F-11.0°C 13% 2.6 mph SE4.2 kmh SE 6.7 mph10.8 kmh 30.17 in1021.7 mb 0.00 in0.0 mm 0.00 in/hr0.0 mm/hr 0.00 in0.0 mm
12:45 PM 64.6°F18.1°C 11.5°F-11.4°C 13% 4.4 mph ESE7.1 kmh ESE 5.1 mph8.2 kmh 30.16 in1021.3 mb 0.00 in0.0 mm 0.00 in/hr0.0 mm/hr 0.00 in0.0 mm
12:50 PM 64.0°F17.8°C 12.6°F-10.8°C 14% 2.0 mph SE3.2 kmh SE 5.1 mph8.2 kmh 30.16 in1021.3 mb 0.00 in0.0 mm 0.00 in/hr0.0 mm/hr 0.00 in0.0 mm
12:55 PM 63.3°F17.4°C 12.0°F-11.1°C 14% 3.0 mph SSE4.8 kmh SSE 3.1 mph5.0 kmh 30.16 in1021.3 mb 0.00 in0.0 mm 0.00 in/hr0.0 mm/hr 0.00 in0.0 mm
01:01 PM 63.5°F17.5°C 12.2°F-11.0°C 14% 1.8 mph SE2.9 kmh SE 3.1 mph5.0 kmh 30.16 in1021.3 mb 0.00 in0.0 mm 0.00 in/hr0.0 mm/hr 0.00 in0.0 mm
01:06 PM 63.9°F17.7°C 12.4°F-10.9°C 14% 3.1 mph SE5.0 kmh SE 3.1 mph5.0 kmh 30.15 in1021.0 mb 0.00 in0.0 mm 0.00 in/hr0.0 mm/hr 0.00 in0.0 mm
01:11 PM 67.3°F19.6°C 13.6°F-10.2°C 13% 0.8 mph S1.3 kmh S 3.1 mph5.0 kmh 30.14 in1020.7 mb 0.00 in0.0 mm 0.00 in/hr0.0 mm/hr 0.00 in0.0 mm
01:16 PM 65.8°F18.8°C 14.0°F-10.0°C 14% 1.1 mph S1.8 kmh S 1.5 mph2.4 kmh 30.14 in1020.7 mb 0.00 in0.0 mm 0.00 in/hr0.0 mm/hr 0.00 in0.0 mm
01:22 PM 66.9°F19.4°C 13.3°F-10.4°C 13% Calm Calm 1.5 mph2.4 kmh 30.14 in1020.7 mb 0.00 in0.0 mm 0.00 in/hr0.0 mm/hr 0.00 in0.0 mm
01:27 PM 65.8°F18.8°C 12.4°F-10.9°C 13% 1.7 mph E2.7 kmh E 2.4 mph3.9 kmh 30.14 in1020.7 mb 0.00 in0.0 mm 0.00 in/hr0.0 mm/hr 0.00 in0.0 mm
01:32 PM 65.8°F18.8°C 14.0°F-10.0°C 14% 2.6 mph SE4.2 kmh SE 2.6 mph4.2 kmh 30.14 in1020.7 mb 0.00 in0.0 mm 0.00 in/hr0.0 mm/hr 0.00 in0.0 mm
01:37 PM 64.6°F18.1°C 13.1°F-10.5°C 14% 3.1 mph SE5.0 kmh SE 3.1 mph5.0 kmh 30.14 in1020.7 mb 0.00 in0.0 mm 0.00 in/hr0.0 mm/hr 0.00 in0.0 mm
01:43 PM 64.0°F17.8°C 12.6°F-10.8°C 14% 1.3 mph SE2.1 kmh SE 3.1 mph5.0 kmh 30.14 in1020.7 mb 0.00 in0.0 mm 0.00 in/hr0.0 mm/hr 0.00 in0.0 mm
01:48 PM 65.1°F18.4°C 13.5°F-10.3°C 14% Calm Calm 3.1 mph5.0 kmh 30.12 in1020.0 mb 0.00 in0.0 mm 0.00 in/hr0.0 mm/hr 0.00 in0.0 mm
01:53 PM 66.0°F18.9°C 14.2°F-9.9°C 14% 1.5 mph SW2.4 kmh SW 7.8 mph12.6 kmh 30.13 in1020.3 mb 0.00 in0.0 mm 0.00 in/hr0.0 mm/hr 0.00 in0.0 mm
01:58 PM 67.1°F19.5°C 15.1°F-9.4°C 13% 3.1 mph SE5.0 kmh SE 6.2 mph10.0 kmh 30.13 in1020.3 mb 0.00 in0.0 mm 0.00 in/hr0.0 mm/hr 0.00 in0.0 mm
02:04 PM 66.6°F19.2°C 16.2°F-8.8°C 15% 0.8 mph SSE1.3 kmh SSE 3.1 mph5.0 kmh 30.13 in1020.3 mb 0.00 in0.0 mm 0.00 in/hr0.0 mm/hr 0.00 in0.0 mm
02:09 PM 66.0°F18.9°C 14.2°F-9.9°C 14% 1.8 mph SE2.9 kmh SE 3.3 mph5.3 kmh 30.13 in1020.3 mb 0.00 in0.0 mm 0.00 in/hr0.0 mm/hr 0.00 in0.0 mm
02:14 PM 65.5°F18.6°C 13.8°F-10.1°C 14% 3.3 mph SE5.3 kmh SE 3.3 mph5.3 kmh 30.14 in1020.7 mb 0.00 in0.0 mm 0.00 in/hr0.0 mm/hr 0.00 in0.0 mm
02:19 PM 65.5°F18.6°C 16.9°F-8.4°C 16% 3.4 mph S5.5 kmh S 4.2 mph6.8 kmh 30.14 in1020.7 mb 0.00 in0.0 mm 0.00 in/hr0.0 mm/hr 0.00 in0.0 mm
02:25 PM 65.8°F18.8°C 17.2°F-8.2°C 16% Calm Calm 4.2 mph6.8 kmh 30.14 in1020.7 mb 0.00 in0.0 mm 0.00 in/hr0.0 mm/hr 0.00 in0.0 mm
02:30 PM 66.9°F19.4°C 18.1°F-7.7°C 16% Calm Calm 4.2 mph6.8 kmh 30.14 in1020.7 mb 0.00 in0.0 mm 0.00 in/hr0.0 mm/hr 0.00 in0.0 mm
02:35 PM 67.1°F19.5°C 18.3°F-7.6°C 16% 0.6 mph SSE1.0 kmh SSE 0.6 mph1.0 kmh 30.14 in1020.7 mb 0.00 in0.0 mm 0.00 in/hr0.0 mm/hr 0.00 in0.0 mm
02:40 PM 66.0°F18.9°C 17.4°F-8.1°C 16% 1.0 mph SE1.6 kmh SE 3.1 mph5.0 kmh 30.13 in1020.3 mb 0.00 in0.0 mm 0.00 in/hr0.0 mm/hr 0.00 in0.0 mm
02:46 PM 66.9°F19.4°C 18.1°F-7.7°C 16% 3.1 mph SE5.0 kmh SE 3.1 mph5.0 kmh 30.13 in1020.3 mb 0.00 in0.0 mm 0.00 in/hr0.0 mm/hr 0.00 in0.0 mm
02:51 PM 66.7°F19.3°C 18.0°F-7.8°C 16% Calm Calm 3.1 mph5.0 kmh 30.13 in1020.3 mb 0.00 in0.0 mm 0.00 in/hr0.0 mm/hr 0.00 in0.0 mm
02:56 PM 65.5°F18.6°C 18.5°F-7.5°C 17% 4.6 mph SE7.4 kmh SE 4.6 mph7.4 kmh 30.12 in1020.0 mb 0.00 in0.0 mm 0.00 in/hr0.0 mm/hr 0.00 in0.0 mm
03:01 PM 65.5°F18.6°C 18.5°F-7.5°C 17% 2.1 mph SSE3.4 kmh SSE 4.6 mph7.4 kmh 30.12 in1020.0 mb 0.00 in0.0 mm 0.00 in/hr0.0 mm/hr 0.00 in0.0 mm
03:07 PM 65.3°F18.5°C 18.3°F-7.6°C 17% 2.0 mph SSE3.2 kmh SSE 2.9 mph4.7 kmh 30.12 in1020.0 mb 0.00 in0.0 mm 0.00 in/hr0.0 mm/hr 0.00 in0.0 mm
03:12 PM 65.5°F18.6°C 18.5°F-7.5°C 17% 3.7 mph SE6.0 kmh SE 7.3 mph11.7 kmh 30.13 in1020.3 mb 0.00 in0.0 mm 0.00 in/hr0.0 mm/hr 0.00 in0.0 mm
03:17 PM 65.3°F18.5°C 18.3°F-7.6°C 17% 3.1 mph SE5.0 kmh SE 7.3 mph11.7 kmh 30.13 in1020.3 mb 0.00 in0.0 mm 0.00 in/hr0.0 mm/hr 0.00 in0.0 mm
03:22 PM 66.0°F18.9°C 20.5°F-6.4°C 18% 1.3 mph S2.1 kmh S 6.9 mph11.1 kmh 30.13 in1020.3 mb 0.00 in0.0 mm 0.00 in/hr0.0 mm/hr 0.00 in0.0 mm
03:28 PM 66.4°F19.1°C 20.8°F-6.2°C 18% 3.6 mph SE5.8 kmh SE 9.1 mph14.6 kmh 30.13 in1020.3 mb 0.00 in0.0 mm 0.00 in/hr0.0 mm/hr 0.00 in0.0 mm
03:33 PM 66.0°F18.9°C 20.5°F-6.4°C 18% 4.7 mph SE7.6 kmh SE 12.5 mph20.1 kmh 30.13 in1020.3 mb 0.00 in0.0 mm 0.00 in/hr0.0 mm/hr 0.00 in0.0 mm
03:38 PM 66.2°F19.0°C 22.3°F-5.4°C 19% 5.1 mph SE8.2 kmh SE 12.9 mph20.8 kmh 30.13 in1020.3 mb 0.00 in0.0 mm 0.00 in/hr0.0 mm/hr 0.00 in0.0 mm
03:43 PM 66.7°F19.3°C 21.2°F-6.0°C 18% 2.7 mph ESE4.3 kmh ESE 12.9 mph20.8 kmh 30.13 in1020.3 mb 0.00 in0.0 mm 0.00 in/hr0.0 mm/hr 0.00 in0.0 mm
03:49 PM 66.7°F19.3°C 22.6°F-5.2°C 19% 4.8 mph SSE7.7 kmh SSE 18.5 mph29.8 kmh 30.13 in1020.3 mb 0.00 in0.0 mm 0.00 in/hr0.0 mm/hr 0.00 in0.0 mm
03:54 PM 65.8°F18.8°C 21.9°F-5.6°C 19% 5.2 mph SSE8.4 kmh SSE 18.5 mph29.8 kmh 30.14 in1020.7 mb 0.00 in0.0 mm 0.00 in/hr0.0 mm/hr 0.00 in0.0 mm
03:59 PM 66.7°F19.3°C 22.6°F-5.2°C 19% 3.9 mph SE6.3 kmh SE 13.4 mph21.6 kmh 30.13 in1020.3 mb 0.00 in0.0 mm 0.00 in/hr0.0 mm/hr 0.00 in0.0 mm
04:04 PM 66.4°F19.1°C 23.9°F-4.5°C 20% 3.6 mph SSE5.8 kmh SSE 13.4 mph21.6 kmh 30.13 in1020.3 mb 0.00 in0.0 mm 0.00 in/hr0.0 mm/hr 0.00 in0.0 mm
04:09 PM 66.4°F19.1°C 23.9°F-4.5°C 20% 3.3 mph SSE5.3 kmh SSE 12.5 mph20.1 kmh 30.13 in1020.3 mb 0.00 in0.0 mm 0.00 in/hr0.0 mm/hr 0.00 in0.0 mm
04:15 PM 65.7°F18.7°C 25.3°F-3.7°C 22% 5.0 mph SE8.0 kmh SE 11.6 mph18.7 kmh 30.13 in1020.3 mb 0.00 in0.0 mm 0.00 in/hr0.0 mm/hr 0.00 in0.0 mm
04:20 PM 65.8°F18.8°C 24.4°F-4.2°C 22% 1.7 mph SE2.7 kmh SE 11.6 mph18.7 kmh 30.14 in1020.7 mb 0.00 in0.0 mm 0.00 in/hr0.0 mm/hr 0.00 in0.0 mm
04:25 PM 65.5°F18.6°C 25.2°F-3.8°C 22% 2.1 mph SE3.4 kmh SE 3.5 mph5.6 kmh 30.14 in1020.7 mb 0.00 in0.0 mm 0.00 in/hr0.0 mm/hr 0.00 in0.0 mm
04:30 PM 65.8°F18.8°C 25.5°F-3.6°C 22% 4.0 mph SE6.4 kmh SE 4.0 mph6.4 kmh 30.14 in1020.7 mb 0.00 in0.0 mm 0.00 in/hr0.0 mm/hr 0.00 in0.0 mm
04:36 PM 66.0°F18.9°C 25.7°F-3.5°C 22% 2.7 mph SSE4.3 kmh SSE 7.1 mph11.4 kmh 30.13 in1020.3 mb 0.00 in0.0 mm 0.00 in/hr0.0 mm/hr 0.00 in0.0 mm
04:42 PM 65.8°F18.8°C 26.6°F-3.0°C 23% 3.6 mph SE5.8 kmh SE 9.8 mph15.8 kmh 30.13 in1020.3 mb 0.00 in0.0 mm 0.00 in/hr0.0 mm/hr 0.00 in0.0 mm
04:47 PM 65.5°F18.6°C 26.2°F-3.2°C 23% 3.3 mph SE5.3 kmh SE 9.8 mph15.8 kmh 30.13 in1020.3 mb 0.00 in0.0 mm 0.00 in/hr0.0 mm/hr 0.00 in0.0 mm
04:52 PM 65.1°F18.4°C 25.9°F-3.4°C 23% 2.2 mph SE3.5 kmh SE 9.1 mph14.6 kmh 30.13 in1020.3 mb 0.00 in0.0 mm 0.00 in/hr0.0 mm/hr 0.00 in0.0 mm
04:57 PM 64.9°F18.3°C 26.8°F-2.9°C 24% 3.2 mph ESE5.1 kmh ESE 7.1 mph11.4 kmh 30.13 in1020.3 mb 0.00 in0.0 mm 0.00 in/hr0.0 mm/hr 0.00 in0.0 mm
05:03 PM 64.4°F18.0°C 26.4°F-3.1°C 24% 4.5 mph ESE7.2 kmh ESE 6.4 mph10.3 kmh 30.13 in1020.3 mb 0.00 in0.0 mm 0.00 in/hr0.0 mm/hr 0.00 in0.0 mm
05:08 PM 64.2°F17.9°C 26.2°F-3.2°C 24% 3.2 mph ESE5.1 kmh ESE 4.9 mph7.9 kmh 30.13 in1020.3 mb 0.00 in0.0 mm 0.00 in/hr0.0 mm/hr 0.00 in0.0 mm
05:13 PM 64.0°F17.8°C 26.1°F-3.3°C 24% 3.8 mph ESE6.1 kmh ESE 4.9 mph7.9 kmh 30.13 in1020.3 mb 0.00 in0.0 mm 0.00 in/hr0.0 mm/hr 0.00 in0.0 mm
05:18 PM 64.0°F17.8°C 26.1°F-3.3°C 24% 2.0 mph SE3.2 kmh SE 4.9 mph7.9 kmh 30.13 in1020.3 mb 0.00 in0.0 mm 0.00 in/hr0.0 mm/hr 0.00 in0.0 mm
05:24 PM 63.7°F17.6°C 25.7°F-3.5°C 24% 4.4 mph SE7.1 kmh SE 4.4 mph7.1 kmh 30.13 in1020.3 mb 0.00 in0.0 mm 0.00 in/hr0.0 mm/hr 0.00 in0.0 mm
05:29 PM 63.1°F17.3°C 25.3°F-3.7°C 24% Calm Calm 4.4 mph7.1 kmh 30.13 in1020.3 mb 0.00 in0.0 mm 0.00 in/hr0.0 mm/hr 0.00 in0.0 mm
05:34 PM 62.8°F17.1°C 25.9°F-3.4°C 25% 0.6 mph SE1.0 kmh SE 0.6 mph1.0 kmh 30.14 in1020.7 mb 0.00 in0.0 mm 0.00 in/hr0.0 mm/hr 0.00 in0.0 mm
05:39 PM 62.2°F16.8°C 25.5°F-3.6°C 25% 1.7 mph SSE2.7 kmh SSE 1.7 mph2.7 kmh 30.14 in1020.7 mb 0.00 in0.0 mm 0.00 in/hr0.0 mm/hr 0.00 in0.0 mm
05:44 PM 61.5°F16.4°C 24.8°F-4.0°C 25% Calm Calm 1.7 mph2.7 kmh 30.14 in1020.7 mb 0.00 in0.0 mm 0.00 in/hr0.0 mm/hr 0.00 in0.0 mm
05:50 PM 60.6°F15.9°C 25.0°F-3.9°C 26% Calm Calm -- 30.14 in1020.7 mb 0.00 in0.0 mm 0.00 in/hr0.0 mm/hr 0.00 in0.0 mm
05:55 PM 60.4°F15.8°C 25.0°F-3.9°C 26% Calm Calm -- 30.15 in1021.0 mb 0.00 in0.0 mm 0.00 in/hr0.0 mm/hr 0.00 in0.0 mm
06:00 PM 60.1°F15.6°C 24.6°F-4.1°C 26% Calm Calm -- 30.15 in1021.0 mb 0.00 in0.0 mm 0.00 in/hr0.0 mm/hr 0.00 in0.0 mm
06:06 PM 59.7°F15.4°C 25.3°F-3.7°C 27% Calm Calm -- 30.15 in1021.0 mb 0.00 in0.0 mm 0.00 in/hr0.0 mm/hr 0.00 in0.0 mm
06:11 PM 58.6°F14.8°C 25.3°F-3.7°C 28% Calm Calm -- 30.16 in1021.3 mb 0.00 in0.0 mm 0.00 in/hr0.0 mm/hr 0.00 in0.0 mm
06:16 PM 58.5°F14.7°C 25.2°F-3.8°C 28% Calm Calm -- 30.16 in1021.3 mb 0.00 in0.0 mm 0.00 in/hr0.0 mm/hr 0.00 in0.0 mm
06:21 PM 58.1°F14.5°C 24.8°F-4.0°C 28% Calm Calm -- 30.17 in1021.7 mb 0.00 in0.0 mm 0.00 in/hr0.0 mm/hr 0.00 in0.0 mm
06:27 PM 57.6°F14.2°C 25.3°F-3.7°C 29% Calm Calm -- 30.16 in1021.3 mb 0.00 in0.0 mm 0.00 in/hr0.0 mm/hr 0.00 in0.0 mm
06:32 PM 56.8°F13.8°C 24.6°F-4.1°C 29% Calm Calm -- 30.17 in1021.7 mb 0.00 in0.0 mm 0.00 in/hr0.0 mm/hr 0.00 in0.0 mm
06:37 PM 56.3°F13.5°C 25.2°F-3.8°C 30% Calm Calm -- 30.18 in1022.0 mb 0.00 in0.0 mm 0.00 in/hr0.0 mm/hr 0.00 in0.0 mm
06:42 PM 55.9°F13.3°C 25.5°F-3.6°C 31% Calm Calm -- 30.18 in1022.0 mb 0.00 in0.0 mm 0.00 in/hr0.0 mm/hr 0.00 in0.0 mm
06:48 PM 55.0°F12.8°C 25.5°F-3.6°C 32% Calm Calm -- 30.18 in1022.0 mb 0.00 in0.0 mm 0.00 in/hr0.0 mm/hr 0.00 in0.0 mm
06:53 PM 54.3°F12.4°C 25.5°F-3.6°C 33% 0.8 mph WNW1.3 kmh WNW 0.8 mph1.3 kmh 30.18 in1022.0 mb 0.00 in0.0 mm 0.00 in/hr0.0 mm/hr 0.00 in0.0 mm
06:58 PM 53.2°F11.8°C 25.3°F-3.7°C 34% Calm Calm 0.8 mph1.3 kmh 30.18 in1022.0 mb 0.00 in0.0 mm 0.00 in/hr0.0 mm/hr 0.00 in0.0 mm
07:03 PM 52.3°F11.3°C 25.2°F-3.8°C 35% Calm Calm 0.8 mph1.3 kmh 30.18 in1022.0 mb 0.00 in0.0 mm 0.00 in/hr0.0 mm/hr 0.00 in0.0 mm
07:09 PM 52.5°F11.4°C 26.1°F-3.3°C 36% 0.2 mph WNW0.3 kmh WNW 0.2 mph0.3 kmh 30.18 in1022.0 mb 0.00 in0.0 mm 0.00 in/hr0.0 mm/hr 0.00 in0.0 mm
07:14 PM 52.3°F11.3°C 25.9°F-3.4°C 36% Calm Calm 0.2 mph0.3 kmh 30.18 in1022.0 mb 0.00 in0.0 mm 0.00 in/hr0.0 mm/hr 0.00 in0.0 mm
07:19 PM 52.2°F11.2°C 25.7°F-3.5°C 36% Calm Calm -- 30.18 in1022.0 mb 0.00 in0.0 mm 0.00 in/hr0.0 mm/hr 0.00 in0.0 mm
07:24 PM 52.0°F11.1°C 27.0°F-2.8°C 38% Calm Calm -- 30.18 in1022.0 mb 0.00 in0.0 mm 0.00 in/hr0.0 mm/hr 0.00 in0.0 mm
07:30 PM 52.0°F11.1°C 27.0°F-2.8°C 37% Calm Calm -- 30.18 in1022.0 mb 0.00 in0.0 mm 0.00 in/hr0.0 mm/hr 0.00 in0.0 mm
07:35 PM 51.6°F10.9°C 25.9°F-3.4°C 37% Calm Calm -- 30.18 in1022.0 mb 0.00 in0.0 mm 0.00 in/hr0.0 mm/hr 0.00 in0.0 mm
07:40 PM 51.1°F10.6°C 26.1°F-3.3°C 38% Calm Calm -- 30.18 in1022.0 mb 0.00 in0.0 mm 0.00 in/hr0.0 mm/hr 0.00 in0.0 mm
07:45 PM 50.5°F10.3°C 25.7°F-3.5°C 38% Calm Calm -- 30.19 in1022.4 mb 0.00 in0.0 mm 0.00 in/hr0.0 mm/hr 0.00 in0.0 mm
07:51 PM 49.6°F9.8°C 24.8°F-4.0°C 38% Calm Calm -- 30.18 in1022.0 mb 0.00 in0.0 mm 0.00 in/hr0.0 mm/hr 0.00 in0.0 mm
07:56 PM 49.6°F9.8°C 24.8°F-4.0°C 38% Calm Calm -- 30.18 in1022.0 mb 0.00 in0.0 mm 0.00 in/hr0.0 mm/hr 0.00 in0.0 mm
08:01 PM 49.6°F9.8°C 24.8°F-4.0°C 38% Calm Calm -- 30.19 in1022.4 mb 0.00 in0.0 mm 0.00 in/hr0.0 mm/hr 0.00 in0.0 mm
08:06 PM 49.6°F9.8°C 24.8°F-4.0°C 38% Calm Calm -- 30.18 in1022.0 mb 0.00 in0.0 mm 0.00 in/hr0.0 mm/hr 0.00 in0.0 mm
08:12 PM 49.8°F9.9°C 24.3°F-4.3°C 37% Calm Calm -- 30.18 in1022.0 mb 0.00 in0.0 mm 0.00 in/hr0.0 mm/hr 0.00 in0.0 mm
08:17 PM 50.0°F10.0°C 24.4°F-4.2°C 37% Calm Calm -- 30.19 in1022.4 mb 0.00 in0.0 mm 0.00 in/hr0.0 mm/hr 0.00 in0.0 mm
08:24 PM 49.6°F9.8°C 24.1°F-4.4°C 37% Calm Calm -- 30.19 in1022.4 mb 0.00 in0.0 mm 0.00 in/hr0.0 mm/hr 0.00 in0.0 mm
08:29 PM 49.3°F9.6°C 24.4°F-4.2°C 38% Calm Calm -- 30.19 in1022.4 mb 0.00 in0.0 mm 0.00 in/hr0.0 mm/hr 0.00 in0.0 mm
08:34 PM 49.1°F9.5°C 23.7°F-4.6°C 37% Calm Calm -- 30.19 in1022.4 mb 0.00 in0.0 mm 0.00 in/hr0.0 mm/hr 0.00 in0.0 mm
08:39 PM 49.3°F9.6°C 23.9°F-4.5°C 36% Calm Calm -- 30.19 in1022.4 mb 0.00 in0.0 mm 0.00 in/hr0.0 mm/hr 0.00 in0.0 mm
08:45 PM 49.3°F9.6°C 23.2°F-4.9°C 36% Calm Calm -- 30.19 in1022.4 mb 0.00 in0.0 mm 0.00 in/hr0.0 mm/hr 0.00 in0.0 mm
08:50 PM 49.3°F9.6°C 23.2°F-4.9°C 36% Calm Calm -- 30.19 in1022.4 mb 0.00 in0.0 mm 0.00 in/hr0.0 mm/hr 0.00 in0.0 mm
08:55 PM 50.7°F10.4°C 23.0°F-5.0°C 34% Calm Calm -- 30.19 in1022.4 mb 0.00 in0.0 mm 0.00 in/hr0.0 mm/hr 0.00 in0.0 mm
09:00 PM 51.6°F10.9°C 23.2°F-4.9°C 33% Calm Calm -- 30.20 in1022.7 mb 0.00 in0.0 mm 0.00 in/hr0.0 mm/hr 0.00 in0.0 mm
09:06 PM 52.5°F11.4°C 23.4°F-4.8°C 32% Calm Calm -- 30.20 in1022.7 mb 0.00 in0.0 mm 0.00 in/hr0.0 mm/hr 0.00 in0.0 mm
09:11 PM 52.9°F11.6°C 23.0°F-5.0°C 31% Calm Calm -- 30.19 in1022.4 mb 0.00 in0.0 mm 0.00 in/hr0.0 mm/hr 0.00 in0.0 mm
09:16 PM 53.2°F11.8°C 23.4°F-4.8°C 31% 2.4 mph WSW3.9 kmh WSW 2.4 mph3.9 kmh 30.19 in1022.4 mb 0.00 in0.0 mm 0.00 in/hr0.0 mm/hr 0.00 in0.0 mm
09:21 PM 53.8°F12.1°C 23.7°F-4.6°C 31% Calm Calm 2.4 mph3.9 kmh 30.20 in1022.7 mb 0.00 in0.0 mm 0.00 in/hr0.0 mm/hr 0.00 in0.0 mm
09:27 PM 53.6°F12.0°C 23.5°F-4.7°C 31% Calm Calm 2.4 mph3.9 kmh 30.20 in1022.7 mb 0.00 in0.0 mm 0.00 in/hr0.0 mm/hr 0.00 in0.0 mm
09:32 PM 53.8°F12.1°C 23.0°F-5.0°C 31% Calm Calm -- 30.20 in1022.7 mb 0.00 in0.0 mm 0.00 in/hr0.0 mm/hr 0.00 in0.0 mm
09:37 PM 53.8°F12.1°C 23.7°F-4.6°C 31% Calm Calm -- 30.20 in1022.7 mb 0.00 in0.0 mm 0.00 in/hr0.0 mm/hr 0.00 in0.0 mm
09:42 PM 54.1°F12.3°C 24.1°F-4.4°C 31% Calm Calm -- 30.20 in1022.7 mb 0.00 in0.0 mm 0.00 in/hr0.0 mm/hr 0.00 in0.0 mm
09:48 PM 54.1°F12.3°C 24.1°F-4.4°C 31% 2.2 mph SSW3.5 kmh SSW 2.2 mph3.5 kmh 30.20 in1022.7 mb 0.00 in0.0 mm 0.00 in/hr0.0 mm/hr 0.00 in0.0 mm
09:53 PM 54.3°F12.4°C 24.3°F-4.3°C 30% Calm Calm 2.2 mph3.5 kmh 30.20 in1022.7 mb 0.00 in0.0 mm 0.00 in/hr0.0 mm/hr 0.00 in0.0 mm
09:58 PM 54.3°F12.4°C 24.3°F-4.3°C 30% Calm Calm 2.2 mph3.5 kmh 30.20 in1022.7 mb 0.00 in0.0 mm 0.00 in/hr0.0 mm/hr 0.00 in0.0 mm
10:03 PM 54.3°F12.4°C 23.5°F-4.7°C 30% Calm Calm -- 30.20 in1022.7 mb 0.00 in0.0 mm 0.00 in/hr0.0 mm/hr 0.00 in0.0 mm
10:09 PM 54.0°F12.2°C 23.9°F-4.5°C 31% Calm Calm -- 30.21 in1023.0 mb 0.00 in0.0 mm 0.00 in/hr0.0 mm/hr 0.00 in0.0 mm
10:14 PM 53.2°F11.8°C 23.4°F-4.8°C 31% Calm Calm -- 30.21 in1023.0 mb 0.00 in0.0 mm 0.00 in/hr0.0 mm/hr 0.00 in0.0 mm
10:19 PM 52.2°F11.2°C 23.0°F-5.0°C 32% Calm Calm -- 30.21 in1023.0 mb 0.00 in0.0 mm 0.00 in/hr0.0 mm/hr 0.00 in0.0 mm
10:24 PM 51.4°F10.8°C 23.0°F-5.0°C 33% Calm Calm -- 30.21 in1023.0 mb 0.00 in0.0 mm 0.00 in/hr0.0 mm/hr 0.00 in0.0 mm
10:30 PM 50.7°F10.4°C 23.0°F-5.0°C 34% Calm Calm -- 30.21 in1023.0 mb 0.00 in0.0 mm 0.00 in/hr0.0 mm/hr 0.00 in0.0 mm
10:35 PM 50.7°F10.4°C 23.0°F-5.0°C 34% Calm Calm -- 30.21 in1023.0 mb 0.00 in0.0 mm 0.00 in/hr0.0 mm/hr 0.00 in0.0 mm
10:40 PM 50.5°F10.3°C 22.8°F-5.1°C 34% Calm Calm -- 30.22 in1023.4 mb 0.00 in0.0 mm 0.00 in/hr0.0 mm/hr 0.00 in0.0 mm
10:45 PM 50.2°F10.1°C 23.2°F-4.9°C 35% Calm Calm -- 30.22 in1023.4 mb 0.00 in0.0 mm 0.00 in/hr0.0 mm/hr 0.00 in0.0 mm
10:51 PM 50.0°F10.0°C 23.2°F-4.9°C 35% Calm Calm -- 30.22 in1023.4 mb 0.00 in0.0 mm 0.00 in/hr0.0 mm/hr 0.00 in0.0 mm
10:56 PM 49.6°F9.8°C 23.5°F-4.7°C 36% Calm Calm -- 30.22 in1023.4 mb 0.00 in0.0 mm 0.00 in/hr0.0 mm/hr 0.00 in0.0 mm
11:01 PM 49.3°F9.6°C 23.2°F-4.9°C 36% Calm Calm -- 30.22 in1023.4 mb 0.00 in0.0 mm 0.00 in/hr0.0 mm/hr 0.00 in0.0 mm
11:06 PM 48.9°F9.4°C 23.5°F-4.7°C 37% Calm Calm -- 30.22 in1023.4 mb 0.00 in0.0 mm 0.00 in/hr0.0 mm/hr 0.00 in0.0 mm
11:12 PM 48.6°F9.2°C 23.2°F-4.9°C 37% Calm Calm -- 30.22 in1023.4 mb 0.00 in0.0 mm 0.00 in/hr0.0 mm/hr 0.00 in0.0 mm
11:17 PM 48.4°F9.1°C 23.7°F-4.6°C 38% Calm Calm -- 30.22 in1023.4 mb 0.00 in0.0 mm 0.00 in/hr0.0 mm/hr 0.00 in0.0 mm
11:22 PM 48.2°F9.0°C 23.5°F-4.7°C 38% Calm Calm -- 30.22 in1023.4 mb 0.00 in0.0 mm 0.00 in/hr0.0 mm/hr 0.00 in0.0 mm
11:28 PM 48.4°F9.1°C 24.4°F-4.2°C 39% Calm Calm -- 30.22 in1023.4 mb 0.00 in0.0 mm 0.00 in/hr0.0 mm/hr 0.00 in0.0 mm
11:33 PM 48.4°F9.1°C 24.4°F-4.2°C 39% Calm Calm -- 30.22 in1023.4 mb 0.00 in0.0 mm 0.00 in/hr0.0 mm/hr 0.00 in0.0 mm
11:38 PM 48.4°F9.1°C 24.4°F-4.2°C 42% Calm Calm -- 30.22 in1023.4 mb 0.00 in0.0 mm 0.00 in/hr0.0 mm/hr 0.00 in0.0 mm
11:43 PM 48.2°F9.0°C 26.6°F-3.0°C 43% Calm Calm -- 30.22 in1023.4 mb 0.00 in0.0 mm 0.00 in/hr0.0 mm/hr 0.00 in0.0 mm
11:49 PM 48.0°F8.9°C 26.4°F-3.1°C 44% Calm Calm -- 30.22 in1023.4 mb 0.00 in0.0 mm 0.00 in/hr0.0 mm/hr 0.00 in0.0 mm
11:54 PM 48.0°F8.9°C 28.0°F-2.2°C 46% Calm Calm -- 30.22 in1023.4 mb 0.00 in0.0 mm 0.00 in/hr0.0 mm/hr 0.00 in0.0 mm
11:59 PM 47.8°F8.8°C 27.9°F-2.3°C 46% Calm Calm -- 30.22 in1023.4 mb 0.00 in0.0 mm 0.00 in/hr0.0 mm/hr 0.00 in0.0 mm